Alloway, NJ

9:26 AM EDT on September 02, 2014 (GMT -0400)
Salem NJ | Change Station
CLOSE
Current Station
Personal Weather Station
Location: Salem, NJ
Elevation: 25 ft
Nearby Weather Stations
Active Advisory: Air Quality Alert

Elev 25 ft 39.57 °N, 75.46 °W | Updated 1 minute ago

Clear
Clear
76.8 °F
Feels Like 77 °F
N
0.0
Wind Variable Wind from WSW
Gusts 2.0 mph

Today
High -- | Low -- °F
--% Chance of Precip.
Yesterday
High -- | Low -- °F
Precip. -- in
6:30 AM 7:30 PM
Waxing Crescent, 51% visible
Pressure 29.96 in
Visibility 10.0 miles
Clouds Clear
Heat Index 77 °F
Dew Point 76 °F
Humidity 96%
Rainfall 0.33 in
Snow Depth Not available.
UV 2 out of 12
Pollen 9.50 out of 12
Ozone Good
PM2.5 Good
Flu Activity Not available.
METAR KILG 021251Z AUTO 26006KT 10SM CLR 27/23 A2997 RMK AO2 SLP146 T02720233 TSNO

More Conditions Fewer Conditions

Pressure 29.96 in
Visibility 10.0 miles
Clouds Clear
Heat Index 77 °F
Dew Point 76 °F
Humidity 96%
Rainfall 0.33 in
Snow Depth Not available.
UV 2 out of 12
Pollen 9.50 out of 12
Ozone Good
PM2.5 Good
Flu Activity Not available.
METAR KILG 021251Z AUTO 26006KT 10SM CLR 27/23 A2997 RMK AO2 SLP146 T02720233 TSNO

More Conditions Fewer Conditions

10-Day Weather Forecast

Almanac

Astronomy

Sep. 02, 2014 Rise Set
Actual Time 6:30 AM EDT 7:30 PM EDT
Civil Twilight 6:02 AM EDT 7:58 PM EDT
Nautical Twilight 5:30 AM EDT 8:31 PM EDT
Astronomical Twilight 4:56 AM EDT 9:04 PM EDT
Moon 2:10 PM EDT No Moon Set
Length of Visible Light 13h 55m
Length of Day
13h 00m
Tomorrow will be 2m 29s shorter.
Waxing Crescent, 51% of the Moon is Illuminated
Today
Waxing Crescent
Sep 8
Full
Sep 15
Last Quarter
Sep 24
New
Oct 1
First Quarter

Today's Extremes

State Highs State Lows

Community

WunderPhotos

Upload Photos

1,749,648 photos uploaded!

Nearby

Air Quality

  Air Quality AQ Index Pollutant
Yesterday Good
PM2.5
Yesterday Good
OZONE
Current Good
PM2.5
Current Good
OZONE
Tuesday Moderate
OZONE
Tuesday Moderate
PM2.5
Wednesday Moderate
OZONE
Wednesday Good
PM2.5
Thursday Moderate
OZONE
Thursday Moderate
PM2.5

Snow Depth

Station Depth Elevation
No new snow has been reported.

Earthquake Activity

City Distance Mag. Time & Date
No recent earthquake activity has been reported nearby.
Minimum magnitude displayed is 2.5.

Coastal Water Temperatures

Place Temperature
Ship John Shoal, NJ 78.1 °F
Cape May, NJ 80.1 °F
Reedy Point, DE 79.0 °F
Delaware City, DE 79.0 °F
Marcus Hook, PA 79.0 °F

Nearby Weather Stations